sensor_id;sensor_type;location;lat;lon;timestamp;temperature;humidity
71514;DHT22;59335;46.652;21.272;2024-03-06T00:02:50;23.50;37.74
71514;DHT22;59335;46.652;21.272;2024-03-06T00:05:53;23.51;37.72
71514;DHT22;59335;46.652;21.272;2024-03-06T00:08:56;23.51;37.68
71514;DHT22;59335;46.652;21.272;2024-03-06T00:11:59;23.51;37.73
71514;DHT22;59335;46.652;21.272;2024-03-06T00:15:02;23.50;37.71
71514;DHT22;59335;46.652;21.272;2024-03-06T00:18:06;23.51;37.67
71514;DHT22;59335;46.652;21.272;2024-03-06T00:21:09;23.50;37.68
71514;DHT22;59335;46.652;21.272;2024-03-06T00:24:16;23.49;37.64
71514;DHT22;59335;46.652;21.272;2024-03-06T00:27:19;23.49;37.61
71514;DHT22;59335;46.652;21.272;2024-03-06T00:30:22;23.50;37.65
71514;DHT22;59335;46.652;21.272;2024-03-06T00:33:24;23.50;37.60
71514;DHT22;59335;46.652;21.272;2024-03-06T00:36:27;23.50;37.60
71514;DHT22;59335;46.652;21.272;2024-03-06T00:39:30;23.50;37.60
71514;DHT22;59335;46.652;21.272;2024-03-06T00:42:33;23.50;37.50
71514;DHT22;59335;46.652;21.272;2024-03-06T00:45:38;23.51;37.51
71514;DHT22;59335;46.652;21.272;2024-03-06T00:48:41;23.50;37.48
71514;DHT22;59335;46.652;21.272;2024-03-06T00:51:44;23.49;37.44
71514;DHT22;59335;46.652;21.272;2024-03-06T00:54:51;23.47;37.40
71514;DHT22;59335;46.652;21.272;2024-03-06T00:57:54;23.49;37.44
71514;DHT22;59335;46.652;21.272;2024-03-06T01:00:56;23.50;37.33
71514;DHT22;59335;46.652;21.272;2024-03-06T01:04:01;23.46;37.34
71514;DHT22;59335;46.652;21.272;2024-03-06T01:07:04;23.47;37.37
71514;DHT22;59335;46.652;21.272;2024-03-06T01:10:09;23.47;37.34
71514;DHT22;59335;46.652;21.272;2024-03-06T01:13:13;23.49;37.33
71514;DHT22;59335;46.652;21.272;2024-03-06T01:16:16;23.47;37.36
71514;DHT22;59335;46.652;21.272;2024-03-06T01:19:19;23.47;37.26
71514;DHT22;59335;46.652;21.272;2024-03-06T01:22:21;23.47;37.20
71514;DHT22;59335;46.652;21.272;2024-03-06T01:25:25;23.46;37.25
71514;DHT22;59335;46.652;21.272;2024-03-06T01:28:28;23.47;37.21
71514;DHT22;59335;46.652;21.272;2024-03-06T01:31:31;23.49;37.24
71514;DHT22;59335;46.652;21.272;2024-03-06T01:34:36;23.47;37.16
71514;DHT22;59335;46.652;21.272;2024-03-06T01:37:38;23.47;37.16
71514;DHT22;59335;46.652;21.272;2024-03-06T01:40:43;23.43;37.15
71514;DHT22;59335;46.652;21.272;2024-03-06T01:43:47;23.45;37.12
71514;DHT22;59335;46.652;21.272;2024-03-06T01:46:50;23.45;37.12
71514;DHT22;59335;46.652;21.272;2024-03-06T01:49:53;23.46;37.10
71514;DHT22;59335;46.652;21.272;2024-03-06T01:52:56;23.43;37.12
71514;DHT22;59335;46.652;21.272;2024-03-06T01:55:59;23.46;37.09
71514;DHT22;59335;46.652;21.272;2024-03-06T01:59:02;23.43;37.12
71514;DHT22;59335;46.652;21.272;2024-03-06T02:02:07;23.43;37.06
71514;DHT22;59335;46.652;21.272;2024-03-06T02:05:13;23.45;37.08
71514;DHT22;59335;46.652;21.272;2024-03-06T02:08:16;23.45;37.05
71514;DHT22;59335;46.652;21.272;2024-03-06T02:11:22;23.45;37.06
71514;DHT22;59335;46.652;21.272;2024-03-06T02:14:25;23.43;37.02
71514;DHT22;59335;46.652;21.272;2024-03-06T02:17:29;23.46;36.96
71514;DHT22;59335;46.652;21.272;2024-03-06T02:20:32;23.43;36.93
71514;DHT22;59335;46.652;21.272;2024-03-06T02:23:37;23.42;36.95
71514;DHT22;59335;46.652;21.272;2024-03-06T02:26:40;23.42;36.93
71514;DHT22;59335;46.652;21.272;2024-03-06T02:29:43;23.43;36.95
71514;DHT22;59335;46.652;21.272;2024-03-06T02:32:46;23.43;36.90
71514;DHT22;59335;46.652;21.272;2024-03-06T02:35:49;23.43;36.84
71514;DHT22;59335;46.652;21.272;2024-03-06T02:38:52;23.45;36.92
71514;DHT22;59335;46.652;21.272;2024-03-06T02:41:56;23.42;36.81
71514;DHT22;59335;46.652;21.272;2024-03-06T02:44:59;23.43;36.80
71514;DHT22;59335;46.652;21.272;2024-03-06T02:48:03;23.42;36.78
71514;DHT22;59335;46.652;21.272;2024-03-06T02:51:06;23.40;36.78
71514;DHT22;59335;46.652;21.272;2024-03-06T02:54:09;23.42;36.76
71514;DHT22;59335;46.652;21.272;2024-03-06T02:57:11;23.40;36.77
71514;DHT22;59335;46.652;21.272;2024-03-06T03:00:14;23.40;36.76
71514;DHT22;59335;46.652;21.272;2024-03-06T03:03:18;23.40;36.80
71514;DHT22;59335;46.652;21.272;2024-03-06T03:06:22;23.40;36.74
71514;DHT22;59335;46.652;21.272;2024-03-06T03:09:26;23.42;36.69
71514;DHT22;59335;46.652;21.272;2024-03-06T03:12:29;23.42;36.69
71514;DHT22;59335;46.652;21.272;2024-03-06T03:15:32;23.42;36.66
71514;DHT22;59335;46.652;21.272;2024-03-06T03:18:35;23.39;36.69
71514;DHT22;59335;46.652;21.272;2024-03-06T03:21:43;23.40;36.69
71514;DHT22;59335;46.652;21.272;2024-03-06T03:24:46;23.38;36.69
71514;DHT22;59335;46.652;21.272;2024-03-06T03:27:50;23.38;36.66
71514;DHT22;59335;46.652;21.272;2024-03-06T03:30:53;23.38;36.60
71514;DHT22;59335;46.652;21.272;2024-03-06T03:33:56;23.39;36.63
71514;DHT22;59335;46.652;21.272;2024-03-06T03:36:59;23.40;36.63
71514;DHT22;59335;46.652;21.272;2024-03-06T03:40:02;23.39;36.59
71514;DHT22;59335;46.652;21.272;2024-03-06T03:43:06;23.40;36.62
71514;DHT22;59335;46.652;21.272;2024-03-06T03:46:09;23.39;36.63
71514;DHT22;59335;46.652;21.272;2024-03-06T03:49:12;23.38;36.59
71514;DHT22;59335;46.652;21.272;2024-03-06T03:52:16;23.39;36.64
71514;DHT22;59335;46.652;21.272;2024-03-06T03:55:19;23.40;36.59
71514;DHT22;59335;46.652;21.272;2024-03-06T03:58:23;23.38;36.60
71514;DHT22;59335;46.652;21.272;2024-03-06T04:01:26;23.39;36.60
71514;DHT22;59335;46.652;21.272;2024-03-06T04:04:28;23.38;36.61
71514;DHT22;59335;46.652;21.272;2024-03-06T04:07:31;23.38;36.59
71514;DHT22;59335;46.652;21.272;2024-03-06T04:10:34;23.38;36.60
71514;DHT22;59335;46.652;21.272;2024-03-06T04:13:42;23.38;36.63
71514;DHT22;59335;46.652;21.272;2024-03-06T04:16:47;23.36;36.66
71514;DHT22;59335;46.652;21.272;2024-03-06T04:19:50;23.36;36.65
71514;DHT22;59335;46.652;21.272;2024-03-06T04:22:53;23.38;36.56
71514;DHT22;59335;46.652;21.272;2024-03-06T04:25:57;23.38;36.56
71514;DHT22;59335;46.652;21.272;2024-03-06T04:29:00;23.36;36.56
71514;DHT22;59335;46.652;21.272;2024-03-06T04:32:03;23.39;36.59
71514;DHT22;59335;46.652;21.272;2024-03-06T04:35:07;23.38;36.59
71514;DHT22;59335;46.652;21.272;2024-03-06T04:38:11;23.36;36.51
71514;DHT22;59335;46.652;21.272;2024-03-06T04:41:14;23.38;36.54
71514;DHT22;59335;46.652;21.272;2024-03-06T04:44:17;23.38;36.56
71514;DHT22;59335;46.652;21.272;2024-03-06T04:47:21;23.33;36.57
71514;DHT22;59335;46.652;21.272;2024-03-06T04:50:23;23.34;36.54
71514;DHT22;59335;46.652;21.272;2024-03-06T04:53:26;23.36;36.52
71514;DHT22;59335;46.652;21.272;2024-03-06T04:56:29;23.34;36.53
71514;DHT22;59335;46.652;21.272;2024-03-06T04:59:32;23.38;36.57
71514;DHT22;59335;46.652;21.272;2024-03-06T05:02:35;23.34;36.54
71514;DHT22;59335;46.652;21.272;2024-03-06T05:05:57;23.34;36.53
71514;DHT22;59335;46.652;21.272;2024-03-06T05:09:17;23.34;36.56
71514;DHT22;59335;46.652;21.272;2024-03-06T05:12:38;23.36;36.50
71514;DHT22;59335;46.652;21.272;2024-03-06T05:15:59;23.34;36.53
71514;DHT22;59335;46.652;21.272;2024-03-06T05:19:19;23.36;36.50
71514;DHT22;59335;46.652;21.272;2024-03-06T05:22:40;23.38;36.53
71514;DHT22;59335;46.652;21.272;2024-03-06T05:26:00;23.36;36.52
71514;DHT22;59335;46.652;21.272;2024-03-06T05:29:21;23.36;36.54
71514;DHT22;59335;46.652;21.272;2024-03-06T05:32:41;23.38;36.49
71514;DHT22;59335;46.652;21.272;2024-03-06T05:36:01;23.40;36.45
71514;DHT22;59335;46.652;21.272;2024-03-06T05:39:21;23.34;36.48
71514;DHT22;59335;46.652;21.272;2024-03-06T05:42:41;23.40;36.47
71514;DHT22;59335;46.652;21.272;2024-03-06T05:46:02;23.40;36.50
71514;DHT22;59335;46.652;21.272;2024-03-06T05:49:22;23.39;36.52
71514;DHT22;59335;46.652;21.272;2024-03-06T05:52:42;23.40;36.50
71514;DHT22;59335;46.652;21.272;2024-03-06T05:56:05;23.42;36.57
71514;DHT22;59335;46.652;21.272;2024-03-06T05:59:26;23.43;36.55
71514;DHT22;59335;46.652;21.272;2024-03-06T06:02:28;23.47;36.48
71514;DHT22;59335;46.652;21.272;2024-03-06T06:05:35;23.49;36.74
71514;DHT22;59335;46.652;21.272;2024-03-06T06:08:40;23.47;36.68
71514;DHT22;59335;46.652;21.272;2024-03-06T06:11:43;23.53;36.75
71514;DHT22;59335;46.652;21.272;2024-03-06T06:14:46;23.46;36.78
71514;DHT22;59335;46.652;21.272;2024-03-06T06:17:49;23.51;36.70
71514;DHT22;59335;46.652;21.272;2024-03-06T06:20:52;23.54;36.62
71514;DHT22;59335;46.652;21.272;2024-03-06T06:23:56;23.60;36.57
71514;DHT22;59335;46.652;21.272;2024-03-06T06:27:00;23.59;36.95
71514;DHT22;59335;46.652;21.272;2024-03-06T06:30:03;23.59;36.79
71514;DHT22;59335;46.652;21.272;2024-03-06T06:33:09;23.64;37.29
71514;DHT22;59335;46.652;21.272;2024-03-06T06:36:12;23.66;37.28
71514;DHT22;59335;46.652;21.272;2024-03-06T06:39:18;23.69;37.36
71514;DHT22;59335;46.652;21.272;2024-03-06T06:42:21;23.74;37.10
71514;DHT22;59335;46.652;21.272;2024-03-06T06:45:25;23.80;36.95
71514;DHT22;59335;46.652;21.272;2024-03-06T06:48:29;23.85;36.96
71514;DHT22;59335;46.652;21.272;2024-03-06T06:51:32;23.97;37.64
71514;DHT22;59335;46.652;21.272;2024-03-06T06:54:35;23.96;37.60
71514;DHT22;59335;46.652;21.272;2024-03-06T06:57:42;24.00;37.64
71514;DHT22;59335;46.652;21.272;2024-03-06T07:00:52;24.00;38.12
71514;DHT22;59335;46.652;21.272;2024-03-06T07:03:58;24.09;37.69
71514;DHT22;59335;46.652;21.272;2024-03-06T07:07:01;24.11;37.83
71514;DHT22;59335;46.652;21.272;2024-03-06T07:10:06;24.18;37.71
71514;DHT22;59335;46.652;21.272;2024-03-06T07:13:09;24.18;37.71
71514;DHT22;59335;46.652;21.272;2024-03-06T07:16:12;24.24;37.76
71514;DHT22;59335;46.652;21.272;2024-03-06T07:19:16;24.30;37.82
71514;DHT22;59335;46.652;21.272;2024-03-06T07:22:19;24.35;37.82
71514;DHT22;59335;46.652;21.272;2024-03-06T07:25:23;24.36;37.88
71514;DHT22;59335;46.652;21.272;2024-03-06T07:28:27;24.39;37.84
71514;DHT22;59335;46.652;21.272;2024-03-06T07:31:32;24.45;37.79
71514;DHT22;59335;46.652;21.272;2024-03-06T07:34:38;24.45;37.76
71514;DHT22;59335;46.652;21.272;2024-03-06T07:37:41;24.51;37.70
71514;DHT22;59335;46.652;21.272;2024-03-06T07:40:48;24.53;37.63
71514;DHT22;59335;46.652;21.272;2024-03-06T07:43:51;24.57;37.60
71514;DHT22;59335;46.652;21.272;2024-03-06T07:46:55;24.51;37.80
71514;DHT22;59335;46.652;21.272;2024-03-06T07:50:11;24.56;37.98
71514;DHT22;59335;46.652;21.272;2024-03-06T07:53:41;24.62;38.14
71514;DHT22;59335;46.652;21.272;2024-03-06T07:56:46;24.66;38.32
71514;DHT22;59335;46.652;21.272;2024-03-06T07:59:51;24.66;38.53
71514;DHT22;59335;46.652;21.272;2024-03-06T08:02:58;24.70;38.67
71514;DHT22;59335;46.652;21.272;2024-03-06T08:06:02;24.70;38.96
71514;DHT22;59335;46.652;21.272;2024-03-06T08:09:06;24.74;39.00
71514;DHT22;59335;46.652;21.272;2024-03-06T08:12:12;24.72;38.86
71514;DHT22;59335;46.652;21.272;2024-03-06T08:15:16;24.76;38.83
71514;DHT22;59335;46.652;21.272;2024-03-06T08:18:20;24.76;38.87
71514;DHT22;59335;46.652;21.272;2024-03-06T08:21:25;24.74;38.92
71514;DHT22;59335;46.652;21.272;2024-03-06T08:24:29;24.76;38.91
71514;DHT22;59335;46.652;21.272;2024-03-06T08:27:38;24.84;38.80
71514;DHT22;59335;46.652;21.272;2024-03-06T08:30:43;24.84;38.71
71514;DHT22;59335;46.652;21.272;2024-03-06T08:33:47;24.84;38.61
71514;DHT22;59335;46.652;21.272;2024-03-06T08:36:52;24.90;38.51
71514;DHT22;59335;46.652;21.272;2024-03-06T08:39:57;24.90;38.49
71514;DHT22;59335;46.652;21.272;2024-03-06T08:43:01;24.87;38.58
71514;DHT22;59335;46.652;21.272;2024-03-06T08:46:04;24.87;38.63
71514;DHT22;59335;46.652;21.272;2024-03-06T08:49:07;24.84;38.68
71514;DHT22;59335;46.652;21.272;2024-03-06T08:52:15;24.82;38.76
71514;DHT22;59335;46.652;21.272;2024-03-06T08:55:19;24.82;39.01
71514;DHT22;59335;46.652;21.272;2024-03-06T08:58:22;24.80;39.27
71514;DHT22;59335;46.652;21.272;2024-03-06T09:01:24;24.86;39.60
71514;DHT22;59335;46.652;21.272;2024-03-06T09:04:29;24.82;39.41
71514;DHT22;59335;46.652;21.272;2024-03-06T09:07:34;24.84;39.56
71514;DHT22;59335;46.652;21.272;2024-03-06T09:10:40;24.79;39.66
71514;DHT22;59335;46.652;21.272;2024-03-06T09:13:47;24.80;39.73
71514;DHT22;59335;46.652;21.272;2024-03-06T09:16:49;24.80;39.76
71514;DHT22;59335;46.652;21.272;2024-03-06T09:19:54;24.80;39.57
71514;DHT22;59335;46.652;21.272;2024-03-06T09:23:11;24.83;39.51
71514;DHT22;59335;46.652;21.272;2024-03-06T09:26:23;24.84;39.39
71514;DHT22;59335;46.652;21.272;2024-03-06T09:29:26;24.84;39.44
71514;DHT22;59335;46.652;21.272;2024-03-06T09:32:32;24.86;39.41
71514;DHT22;59335;46.652;21.272;2024-03-06T09:35:38;24.87;39.41
71514;DHT22;59335;46.652;21.272;2024-03-06T09:38:41;24.86;39.47
71514;DHT22;59335;46.652;21.272;2024-03-06T09:41:44;24.87;39.37
71514;DHT22;59335;46.652;21.272;2024-03-06T09:44:51;24.84;39.52
71514;DHT22;59335;46.652;21.272;2024-03-06T09:47:56;24.82;39.74
71514;DHT22;59335;46.652;21.272;2024-03-06T09:51:02;24.66;39.27
71514;DHT22;59335;46.652;21.272;2024-03-06T09:54:07;24.63;39.44
71514;DHT22;59335;46.652;21.272;2024-03-06T09:57:10;24.55;38.65
71514;DHT22;59335;46.652;21.272;2024-03-06T10:00:15;24.04;37.19
71514;DHT22;59335;46.652;21.272;2024-03-06T10:03:25;24.21;38.79
71514;DHT22;59335;46.652;21.272;2024-03-06T10:06:31;24.28;39.50
71514;DHT22;59335;46.652;21.272;2024-03-06T10:09:39;24.38;40.05
71514;DHT22;59335;46.652;21.272;2024-03-06T10:12:46;24.43;39.87
71514;DHT22;59335;46.652;21.272;2024-03-06T10:16:02;24.48;39.97
71514;DHT22;59335;46.652;21.272;2024-03-06T10:19:22;24.52;39.60
71514;DHT22;59335;46.652;21.272;2024-03-06T10:22:27;24.56;39.79
71514;DHT22;59335;46.652;21.272;2024-03-06T10:25:31;24.55;39.68
71514;DHT22;59335;46.652;21.272;2024-03-06T10:28:37;24.57;39.83
71514;DHT22;59335;46.652;21.272;2024-03-06T10:31:41;24.60;39.82
71514;DHT22;59335;46.652;21.272;2024-03-06T10:34:48;24.60;39.81
71514;DHT22;59335;46.652;21.272;2024-03-06T10:37:54;24.62;39.92
71514;DHT22;59335;46.652;21.272;2024-03-06T10:40:57;24.59;40.02
71514;DHT22;59335;46.652;21.272;2024-03-06T10:44:01;24.60;40.02
71514;DHT22;59335;46.652;21.272;2024-03-06T10:47:06;24.59;39.97
71514;DHT22;59335;46.652;21.272;2024-03-06T10:50:14;24.59;40.00
71514;DHT22;59335;46.652;21.272;2024-03-06T10:53:21;24.62;40.07
71514;DHT22;59335;46.652;21.272;2024-03-06T10:56:28;24.63;40.29
71514;DHT22;59335;46.652;21.272;2024-03-06T10:59:31;24.63;40.52
71514;DHT22;59335;46.652;21.272;2024-03-06T11:02:37;24.63;40.88
71514;DHT22;59335;46.652;21.272;2024-03-06T11:05:43;24.66;41.19
71514;DHT22;59335;46.652;21.272;2024-03-06T11:08:53;24.66;41.19
71514;DHT22;59335;46.652;21.272;2024-03-06T11:11:57;24.65;40.99
71514;DHT22;59335;46.652;21.272;2024-03-06T11:15:16;24.63;40.96
71514;DHT22;59335;46.652;21.272;2024-03-06T11:21:33;24.62;40.98
71514;DHT22;59335;46.652;21.272;2024-03-06T11:24:41;24.59;40.95
71514;DHT22;59335;46.652;21.272;2024-03-06T11:28:06;24.62;40.96
71514;DHT22;59335;46.652;21.272;2024-03-06T11:31:10;24.57;40.89
71514;DHT22;59335;46.652;21.272;2024-03-06T11:34:15;24.57;40.77
71514;DHT22;59335;46.652;21.272;2024-03-06T11:37:21;24.53;40.67
71514;DHT22;59335;46.652;21.272;2024-03-06T11:40:25;24.51;40.50
71514;DHT22;59335;46.652;21.272;2024-03-06T11:43:28;24.43;40.24
71514;DHT22;59335;46.652;21.272;2024-03-06T11:46:48;24.42;39.28
71514;DHT22;59335;46.652;21.272;2024-03-06T11:49:59;24.39;39.56
71514;DHT22;59335;46.652;21.272;2024-03-06T11:53:02;24.42;40.05
71514;DHT22;59335;46.652;21.272;2024-03-06T11:56:13;24.45;40.14
71514;DHT22;59335;46.652;21.272;2024-03-06T11:59:17;24.45;40.31
71514;DHT22;59335;46.652;21.272;2024-03-06T12:02:24;24.48;40.41
71514;DHT22;59335;46.652;21.272;2024-03-06T12:05:27;24.55;41.01
71514;DHT22;59335;46.652;21.272;2024-03-06T12:08:30;24.56;41.40
71514;DHT22;59335;46.652;21.272;2024-03-06T12:11:36;24.57;41.13
71514;DHT22;59335;46.652;21.272;2024-03-06T12:14:39;24.56;40.98
71514;DHT22;59335;46.652;21.272;2024-03-06T12:17:47;24.53;40.74
71514;DHT22;59335;46.652;21.272;2024-03-06T12:20:55;24.51;40.70
71514;DHT22;59335;46.652;21.272;2024-03-06T12:24:08;24.52;40.74
71514;DHT22;59335;46.652;21.272;2024-03-06T12:27:11;24.49;40.66
71514;DHT22;59335;46.652;21.272;2024-03-06T12:30:17;24.43;40.21
71514;DHT22;59335;46.652;21.272;2024-03-06T12:33:23;24.42;40.09
71514;DHT22;59335;46.652;21.272;2024-03-06T12:36:26;24.42;40.48
71514;DHT22;59335;46.652;21.272;2024-03-06T12:39:35;24.42;40.48
71514;DHT22;59335;46.652;21.272;2024-03-06T12:42:44;24.42;40.34
71514;DHT22;59335;46.652;21.272;2024-03-06T12:45:48;24.42;40.37
71514;DHT22;59335;46.652;21.272;2024-03-06T12:48:51;24.42;39.81
71514;DHT22;59335;46.652;21.272;2024-03-06T12:51:55;24.43;40.58
71514;DHT22;59335;46.652;21.272;2024-03-06T12:54:58;24.43;40.53
71514;DHT22;59335;46.652;21.272;2024-03-06T12:58:03;24.49;40.69
71514;DHT22;59335;46.652;21.272;2024-03-06T13:01:06;24.49;40.82
71514;DHT22;59335;46.652;21.272;2024-03-06T13:04:10;24.49;40.82
71514;DHT22;59335;46.652;21.272;2024-03-06T13:07:14;24.48;40.80
71514;DHT22;59335;46.652;21.272;2024-03-06T13:10:17;24.48;40.82
71514;DHT22;59335;46.652;21.272;2024-03-06T13:13:22;24.46;40.70
71514;DHT22;59335;46.652;21.272;2024-03-06T13:16:28;24.43;40.71
71514;DHT22;59335;46.652;21.272;2024-03-06T13:19:31;24.42;40.59
71514;DHT22;59335;46.652;21.272;2024-03-06T13:22:35;24.39;40.43
71514;DHT22;59335;46.652;21.272;2024-03-06T13:25:39;24.40;40.53
71514;DHT22;59335;46.652;21.272;2024-03-06T13:28:43;24.40;40.51
71514;DHT22;59335;46.652;21.272;2024-03-06T13:31:46;24.38;40.58
71514;DHT22;59335;46.652;21.272;2024-03-06T13:34:50;24.40;40.57
71514;DHT22;59335;46.652;21.272;2024-03-06T13:37:53;24.39;40.52
71514;DHT22;59335;46.652;21.272;2024-03-06T13:40:58;24.40;40.62
71514;DHT22;59335;46.652;21.272;2024-03-06T13:44:07;24.39;40.37
71514;DHT22;59335;46.652;21.272;2024-03-06T13:47:15;24.38;40.44
71514;DHT22;59335;46.652;21.272;2024-03-06T13:50:20;24.42;40.59
71514;DHT22;59335;46.652;21.272;2024-03-06T13:53:26;24.39;40.80
71514;DHT22;59335;46.652;21.272;2024-03-06T13:56:29;24.38;40.62
71514;DHT22;59335;46.652;21.272;2024-03-06T13:59:33;24.39;40.36
71514;DHT22;59335;46.652;21.272;2024-03-06T14:02:39;24.36;40.28
71514;DHT22;59335;46.652;21.272;2024-03-06T14:05:43;24.39;40.41
71514;DHT22;59335;46.652;21.272;2024-03-06T14:08:46;24.36;40.24
71514;DHT22;59335;46.652;21.272;2024-03-06T14:11:49;24.38;40.24
71514;DHT22;59335;46.652;21.272;2024-03-06T14:14:53;24.35;40.24
71514;DHT22;59335;46.652;21.272;2024-03-06T14:17:56;24.36;40.20
71514;DHT22;59335;46.652;21.272;2024-03-06T14:21:00;24.33;40.16
71514;DHT22;59335;46.652;21.272;2024-03-06T14:24:04;24.30;39.10
71514;DHT22;59335;46.652;21.272;2024-03-06T14:27:11;24.29;39.68
71514;DHT22;59335;46.652;21.272;2024-03-06T14:30:18;24.30;39.45
71514;DHT22;59335;46.652;21.272;2024-03-06T14:33:22;24.28;38.72
71514;DHT22;59335;46.652;21.272;2024-03-06T14:36:25;24.21;37.40
71514;DHT22;59335;46.652;21.272;2024-03-06T14:39:28;24.17;36.55
71514;DHT22;59335;46.652;21.272;2024-03-06T14:42:31;24.25;38.08
71514;DHT22;59335;46.652;21.272;2024-03-06T14:45:36;24.28;37.62
71514;DHT22;59335;46.652;21.272;2024-03-06T14:48:45;24.26;37.41
71514;DHT22;59335;46.652;21.272;2024-03-06T14:51:47;24.24;37.68
71514;DHT22;59335;46.652;21.272;2024-03-06T14:54:50;24.24;37.69
71514;DHT22;59335;46.652;21.272;2024-03-06T14:57:53;24.26;37.83
71514;DHT22;59335;46.652;21.272;2024-03-06T15:00:56;24.25;37.83
71514;DHT22;59335;46.652;21.272;2024-03-06T15:03:59;24.24;38.01
71514;DHT22;59335;46.652;21.272;2024-03-06T15:07:02;24.25;38.07
71514;DHT22;59335;46.652;21.272;2024-03-06T15:10:06;24.25;38.09
71514;DHT22;59335;46.652;21.272;2024-03-06T15:13:10;24.26;38.24
71514;DHT22;59335;46.652;21.272;2024-03-06T15:16:16;24.24;38.54
71514;DHT22;59335;46.652;21.272;2024-03-06T15:19:18;24.24;38.57
71514;DHT22;59335;46.652;21.272;2024-03-06T15:22:22;24.24;38.71
71514;DHT22;59335;46.652;21.272;2024-03-06T15:25:25;24.22;38.95
71514;DHT22;59335;46.652;21.272;2024-03-06T15:28:27;24.22;39.08
71514;DHT22;59335;46.652;21.272;2024-03-06T15:31:30;24.21;39.17
71514;DHT22;59335;46.652;21.272;2024-03-06T15:34:33;24.21;39.17
71514;DHT22;59335;46.652;21.272;2024-03-06T15:37:35;24.21;39.10
71514;DHT22;59335;46.652;21.272;2024-03-06T15:40:38;24.21;39.24
71514;DHT22;59335;46.652;21.272;2024-03-06T15:43:41;24.25;39.41
71514;DHT22;59335;46.652;21.272;2024-03-06T15:46:45;24.21;39.45
71514;DHT22;59335;46.652;21.272;2024-03-06T15:50:04;24.19;39.47
71514;DHT22;59335;46.652;21.272;2024-03-06T15:53:12;24.21;39.38
71514;DHT22;59335;46.652;21.272;2024-03-06T15:56:15;24.21;39.39
71514;DHT22;59335;46.652;21.272;2024-03-06T15:59:19;24.21;39.38
71514;DHT22;59335;46.652;21.272;2024-03-06T16:02:21;24.21;39.37
71514;DHT22;59335;46.652;21.272;2024-03-06T16:05:26;24.18;39.36
71514;DHT22;59335;46.652;21.272;2024-03-06T16:08:29;24.18;39.32
71514;DHT22;59335;46.652;21.272;2024-03-06T16:11:32;24.18;39.36
71514;DHT22;59335;46.652;21.272;2024-03-06T16:14:36;24.17;39.39
71514;DHT22;59335;46.652;21.272;2024-03-06T16:17:39;24.18;39.39
71514;DHT22;59335;46.652;21.272;2024-03-06T16:20:42;24.15;39.71
71514;DHT22;59335;46.652;21.272;2024-03-06T16:23:46;24.14;40.04
71514;DHT22;59335;46.652;21.272;2024-03-06T16:26:49;24.09;41.68
71514;DHT22;59335;46.652;21.272;2024-03-06T16:29:51;24.09;40.98
71514;DHT22;59335;46.652;21.272;2024-03-06T16:32:54;24.11;40.95
71514;DHT22;59335;46.652;21.272;2024-03-06T16:35:57;24.01;51.08
71514;DHT22;59335;46.652;21.272;2024-03-06T16:39:01;24.02;51.69
71514;DHT22;59335;46.652;21.272;2024-03-06T16:42:07;24.01;48.45
71514;DHT22;59335;46.652;21.272;2024-03-06T16:45:11;24.04;49.93
71514;DHT22;59335;46.652;21.272;2024-03-06T16:48:14;24.02;47.92
71514;DHT22;59335;46.652;21.272;2024-03-06T16:51:17;24.05;46.92
71514;DHT22;59335;46.652;21.272;2024-03-06T16:54:21;24.02;46.70
71514;DHT22;59335;46.652;21.272;2024-03-06T16:57:24;24.04;46.21
71514;DHT22;59335;46.652;21.272;2024-03-06T17:00:27;24.07;45.69
71514;DHT22;59335;46.652;21.272;2024-03-06T17:03:29;24.07;45.13
71514;DHT22;59335;46.652;21.272;2024-03-06T17:06:32;24.08;44.76
71514;DHT22;59335;46.652;21.272;2024-03-06T17:09:36;24.04;44.43
71514;DHT22;59335;46.652;21.272;2024-03-06T17:12:41;24.07;44.18
71514;DHT22;59335;46.652;21.272;2024-03-06T17:15:43;24.05;44.04
71514;DHT22;59335;46.652;21.272;2024-03-06T17:18:47;24.07;43.91
71514;DHT22;59335;46.652;21.272;2024-03-06T17:21:50;24.07;43.81
71514;DHT22;59335;46.652;21.272;2024-03-06T17:24:53;24.07;43.74
71514;DHT22;59335;46.652;21.272;2024-03-06T17:27:56;24.08;43.72
71514;DHT22;59335;46.652;21.272;2024-03-06T17:31:00;24.08;43.68
71514;DHT22;59335;46.652;21.272;2024-03-06T17:34:03;24.09;43.57
71514;DHT22;59335;46.652;21.272;2024-03-06T17:37:06;24.07;43.50
71514;DHT22;59335;46.652;21.272;2024-03-06T17:40:10;24.08;43.40
71514;DHT22;59335;46.652;21.272;2024-03-06T17:43:13;24.07;43.31
71514;DHT22;59335;46.652;21.272;2024-03-06T17:46:16;24.07;43.22
71514;DHT22;59335;46.652;21.272;2024-03-06T17:49:19;24.07;43.12
71514;DHT22;59335;46.652;21.272;2024-03-06T17:52:22;24.05;43.06
71514;DHT22;59335;46.652;21.272;2024-03-06T17:55:26;24.08;42.98
71514;DHT22;59335;46.652;21.272;2024-03-06T17:58:28;24.07;42.85
71514;DHT22;59335;46.652;21.272;2024-03-06T18:01:32;24.05;42.82
71514;DHT22;59335;46.652;21.272;2024-03-06T18:04:35;24.08;42.73
71514;DHT22;59335;46.652;21.272;2024-03-06T18:07:40;24.05;42.64
71514;DHT22;59335;46.652;21.272;2024-03-06T18:10:48;24.07;42.54
71514;DHT22;59335;46.652;21.272;2024-03-06T18:13:52;24.04;42.44
71514;DHT22;59335;46.652;21.272;2024-03-06T18:16:55;24.07;42.44
71514;DHT22;59335;46.652;21.272;2024-03-06T18:20:00;24.05;42.30
71514;DHT22;59335;46.652;21.272;2024-03-06T18:23:03;24.07;42.30
71514;DHT22;59335;46.652;21.272;2024-03-06T18:26:06;24.04;42.20
71514;DHT22;59335;46.652;21.272;2024-03-06T18:29:11;24.02;42.16
71514;DHT22;59335;46.652;21.272;2024-03-06T18:32:14;24.01;42.10
71514;DHT22;59335;46.652;21.272;2024-03-06T18:35:17;24.04;41.99
71514;DHT22;59335;46.652;21.272;2024-03-06T18:38:21;24.04;42.03
71514;DHT22;59335;46.652;21.272;2024-03-06T18:41:24;24.02;41.90
71514;DHT22;59335;46.652;21.272;2024-03-06T18:44:27;24.04;41.89
71514;DHT22;59335;46.652;21.272;2024-03-06T18:47:31;24.01;41.81
71514;DHT22;59335;46.652;21.272;2024-03-06T18:50:35;24.02;41.75
71514;DHT22;59335;46.652;21.272;2024-03-06T18:53:37;24.02;41.74
71514;DHT22;59335;46.652;21.272;2024-03-06T18:56:42;24.01;41.70
71514;DHT22;59335;46.652;21.272;2024-03-06T18:59:46;24.02;41.60
71514;DHT22;59335;46.652;21.272;2024-03-06T19:02:51;24.02;41.54
71514;DHT22;59335;46.652;21.272;2024-03-06T19:05:56;24.01;41.54
71514;DHT22;59335;46.652;21.272;2024-03-06T19:08:59;24.00;41.50
71514;DHT22;59335;46.652;21.272;2024-03-06T19:12:02;24.01;41.45
71514;DHT22;59335;46.652;21.272;2024-03-06T19:15:06;24.02;41.37